createdAt,value
2023-05-14T00:02:50.207Z,11.30
2023-05-14T00:05:48.737Z,11.30
2023-05-14T00:08:46.432Z,11.30
2023-05-14T00:11:43.897Z,11.30
2023-05-14T00:14:41.630Z,11.30
2023-05-14T00:17:39.086Z,11.30
2023-05-14T00:20:36.708Z,11.30
2023-05-14T00:23:34.331Z,11.30
2023-05-14T00:26:31.780Z,11.30
2023-05-14T00:29:29.663Z,11.30
2023-05-14T00:32:27.090Z,11.30
2023-05-14T00:35:24.774Z,11.30
2023-05-14T00:38:24.218Z,11.30
2023-05-14T00:41:21.914Z,11.30
2023-05-14T00:44:19.610Z,11.30
2023-05-14T00:47:17.054Z,11.28
2023-05-14T00:50:14.732Z,11.22
2023-05-14T00:53:12.410Z,11.20
2023-05-14T00:56:10.165Z,11.20
2023-05-14T00:59:07.590Z,11.20
2023-05-14T01:02:05.149Z,11.20
2023-05-14T01:05:02.858Z,11.20
2023-05-14T01:08:00.301Z,11.20
2023-05-14T01:10:57.998Z,11.20
2023-05-14T01:13:55.461Z,11.20
2023-05-14T01:16:53.252Z,11.20
2023-05-14T01:19:51.698Z,11.20
2023-05-14T01:22:49.153Z,11.20
2023-05-14T01:25:46.716Z,11.20
2023-05-14T01:28:44.096Z,11.20
2023-05-14T01:31:41.855Z,11.20
2023-05-14T01:34:39.435Z,11.20
2023-05-14T01:37:37.164Z,11.20
2023-05-14T01:40:34.789Z,11.20
2023-05-14T01:43:32.436Z,11.20
2023-05-14T01:46:30.222Z,11.24
2023-05-14T01:49:27.710Z,11.28
2023-05-14T01:52:25.330Z,11.30
2023-05-14T01:55:23.795Z,11.30
2023-05-14T01:58:21.448Z,11.30
2023-05-14T02:01:19.103Z,11.30
2023-05-14T02:04:16.571Z,11.30
2023-05-14T02:07:14.239Z,11.28
2023-05-14T02:10:11.676Z,11.22
2023-05-14T02:13:09.951Z,11.20
2023-05-14T02:16:07.409Z,11.20
2023-05-14T02:19:05.276Z,11.20
2023-05-14T02:22:02.853Z,11.20
2023-05-14T02:25:00.545Z,11.20
2023-05-14T02:27:58.284Z,11.20
2023-05-14T02:30:55.733Z,11.10
2023-05-14T02:33:53.492Z,11.10
2023-05-14T02:36:50.899Z,11.10
2023-05-14T02:39:49.334Z,11.10
2023-05-14T02:42:46.747Z,11.10
2023-05-14T02:45:44.360Z,11.10
2023-05-14T02:48:42.453Z,11.10
2023-05-14T02:51:39.960Z,11.12
2023-05-14T02:54:37.659Z,11.14
2023-05-14T02:57:35.095Z,11.18
2023-05-14T03:00:32.831Z,11.20
2023-05-14T03:03:30.866Z,11.14
2023-05-14T03:06:29.152Z,11.20
2023-05-14T03:09:26.697Z,11.20
2023-05-14T03:12:24.112Z,11.20
2023-05-14T03:15:21.845Z,11.20
2023-05-14T03:18:19.250Z,11.20
2023-05-14T03:21:16.975Z,11.20
2023-05-14T03:24:14.363Z,11.20
2023-05-14T03:27:12.094Z,11.20
2023-05-14T03:30:09.692Z,11.20
2023-05-14T03:33:07.497Z,11.20
2023-05-14T03:36:04.977Z,11.10
2023-05-14T03:39:02.649Z,11.10
2023-05-14T03:42:00.322Z,11.10
2023-05-14T03:44:57.760Z,11.10
2023-05-14T03:47:55.557Z,11.16
2023-05-14T03:50:53.129Z,11.20
2023-05-14T03:53:50.860Z,11.20
2023-05-14T03:56:48.492Z,11.20
2023-05-14T03:59:45.941Z,11.20
2023-05-14T04:02:43.839Z,11.20
2023-05-14T04:05:41.410Z,11.20
2023-05-14T04:08:39.102Z,11.20
2023-05-14T04:11:36.554Z,11.20
2023-05-14T04:14:34.310Z,11.20
2023-05-14T04:17:31.921Z,11.20
2023-05-14T04:20:30.460Z,11.20
2023-05-14T04:23:28.088Z,11.20
2023-05-14T04:26:25.550Z,11.20
2023-05-14T04:29:23.386Z,11.20
2023-05-14T04:32:21.519Z,11.20
2023-05-14T04:35:21.626Z,11.10
2023-05-14T04:38:20.827Z,11.10
2023-05-14T04:41:18.487Z,11.18
2023-05-14T04:44:15.911Z,11.10
2023-05-14T04:47:13.640Z,11.20
2023-05-14T04:50:11.415Z,11.20
2023-05-14T04:53:08.867Z,11.20
2023-05-14T04:56:07.050Z,11.20
2023-05-14T04:59:04.505Z,11.20
2023-05-14T05:02:02.402Z,11.20
2023-05-14T05:04:59.806Z,11.20
2023-05-14T05:07:57.619Z,11.20
2023-05-14T05:10:55.010Z,11.20
2023-05-14T05:13:52.581Z,11.20
2023-05-14T05:16:50.032Z,11.20
2023-05-14T05:19:48.455Z,11.10
2023-05-14T05:22:46.252Z,11.10
2023-05-14T05:25:43.690Z,11.10
2023-05-14T05:28:41.290Z,11.10
2023-05-14T05:31:39.102Z,11.10
2023-05-14T05:34:37.165Z,11.10
2023-05-14T05:37:34.558Z,11.10
2023-05-14T05:40:32.237Z,11.14
2023-05-14T05:43:30.096Z,11.20
2023-05-14T05:46:27.565Z,11.20
2023-05-14T05:49:25.177Z,11.20
2023-05-14T05:52:22.626Z,11.10
2023-05-14T05:55:20.678Z,11.10
2023-05-14T05:58:18.069Z,11.10
2023-05-14T06:01:16.416Z,11.10
2023-05-14T06:04:13.843Z,11.14
2023-05-14T06:07:11.479Z,11.10
2023-05-14T06:10:09.128Z,11.20
2023-05-14T06:13:07.484Z,11.20
2023-05-14T06:16:05.100Z,11.12
2023-05-14T06:19:02.645Z,11.16
2023-05-14T06:22:00.474Z,11.12
2023-05-14T06:24:57.865Z,11.14
2023-05-14T06:27:55.592Z,11.10
2023-05-14T06:30:54.361Z,11.10
2023-05-14T06:33:51.770Z,11.10
2023-05-14T06:36:49.491Z,11.10
2023-05-14T06:39:50.211Z,11.10
2023-05-14T06:42:48.008Z,11.10
2023-05-14T06:45:45.991Z,11.00
2023-05-14T06:48:43.593Z,11.00
2023-05-14T06:51:42.252Z,11.00
2023-05-14T06:54:39.666Z,11.00
2023-05-14T06:57:39.191Z,11.00
2023-05-14T07:00:37.947Z,10.90
2023-05-14T07:03:35.785Z,10.90
2023-05-14T07:06:33.679Z,10.90
2023-05-14T07:09:31.242Z,10.90
2023-05-14T07:12:28.697Z,10.90
2023-05-14T07:15:26.341Z,10.82
2023-05-14T07:18:24.391Z,10.80
2023-05-14T07:21:21.851Z,10.80
2023-05-14T07:24:19.456Z,10.80
2023-05-14T07:27:17.627Z,10.80
2023-05-14T07:30:15.465Z,10.80
2023-05-14T07:33:13.181Z,10.88
2023-05-14T07:36:10.898Z,10.80
2023-05-14T07:39:09.166Z,10.80
2023-05-14T07:42:06.594Z,10.72
2023-05-14T07:45:04.284Z,10.70
2023-05-14T07:48:01.791Z,10.70
2023-05-14T07:50:59.576Z,10.70
2023-05-14T07:53:56.985Z,10.68
2023-05-14T07:56:54.658Z,10.70
2023-05-14T07:59:52.347Z,10.70
2023-05-14T08:02:50.564Z,10.70
2023-05-14T08:05:48.521Z,10.70
2023-05-14T08:08:45.968Z,10.70
2023-05-14T08:11:43.982Z,10.80
2023-05-14T08:14:41.453Z,10.80
2023-05-14T08:17:39.371Z,10.76
2023-05-14T08:20:36.890Z,10.70
2023-05-14T08:23:34.551Z,10.70
2023-05-14T08:26:31.998Z,10.70
2023-05-14T08:29:29.546Z,10.70
2023-05-14T08:32:27.669Z,10.68
2023-05-14T08:35:25.283Z,10.60
2023-05-14T08:38:22.903Z,10.64
2023-05-14T08:41:21.399Z,10.60
2023-05-14T08:44:18.992Z,10.60
2023-05-14T08:47:16.412Z,10.60
2023-05-14T08:50:14.037Z,10.60
2023-05-14T08:53:11.742Z,10.60
2023-05-14T08:56:09.158Z,10.60
2023-05-14T08:59:06.822Z,10.60
2023-05-14T09:02:05.280Z,10.60
2023-05-14T09:05:03.755Z,10.60
2023-05-14T09:08:01.234Z,10.64
2023-05-14T09:10:58.924Z,10.70
2023-05-14T09:13:56.378Z,10.70
2023-05-14T09:16:54.982Z,10.70
2023-05-14T09:19:53.463Z,10.70
2023-05-14T09:22:50.978Z,10.70
2023-05-14T09:25:48.784Z,10.80
2023-05-14T09:28:46.475Z,10.80
2023-05-14T09:31:44.376Z,10.80
2023-05-14T09:34:42.313Z,10.80
2023-05-14T09:37:40.034Z,10.80
2023-05-14T09:40:37.640Z,10.80
2023-05-14T09:43:35.037Z,10.80
2023-05-14T09:46:32.689Z,10.88
2023-05-14T09:49:30.148Z,10.80
2023-05-14T09:52:28.378Z,10.90
2023-05-14T09:55:26.077Z,10.90
2023-05-14T09:58:23.558Z,10.90
2023-05-14T10:01:21.748Z,10.90
2023-05-14T10:04:19.512Z,10.90
2023-05-14T10:07:17.329Z,11.00
2023-05-14T10:10:14.792Z,11.00
2023-05-14T10:13:12.557Z,11.00
2023-05-14T10:16:10.693Z,11.02
2023-05-14T10:19:08.540Z,11.10
2023-05-14T10:22:06.361Z,11.10
2023-05-14T10:25:04.269Z,11.10
2023-05-14T10:28:01.842Z,11.10
2023-05-14T10:30:59.369Z,11.10
2023-05-14T10:33:58.605Z,11.10
2023-05-14T10:36:57.279Z,11.10
2023-05-14T10:39:54.916Z,11.10
2023-05-14T10:42:52.670Z,11.10
2023-05-14T10:45:50.087Z,11.10
2023-05-14T10:48:47.738Z,11.10
2023-05-14T10:51:45.190Z,11.10
2023-05-14T10:54:43.566Z,11.10
2023-05-14T10:57:41.388Z,11.10
2023-05-14T11:00:38.833Z,11.20
2023-05-14T11:03:37.133Z,11.30
2023-05-14T11:06:34.791Z,11.30
2023-05-14T11:09:32.422Z,11.30
2023-05-14T11:12:29.859Z,11.30
2023-05-14T11:15:28.920Z,11.30
2023-05-14T11:18:28.571Z,11.30
2023-05-14T11:21:26.151Z,11.30
2023-05-14T11:24:23.825Z,11.40
2023-05-14T11:27:21.251Z,11.40
2023-05-14T11:30:19.003Z,11.42
2023-05-14T11:33:16.915Z,11.40
2023-05-14T11:36:15.080Z,11.40
2023-05-14T11:39:12.921Z,11.40
2023-05-14T11:42:13.051Z,11.40
2023-05-14T11:45:11.747Z,11.44
2023-05-14T11:48:09.195Z,11.50
2023-05-14T11:51:07.057Z,11.50
2023-05-14T11:54:04.498Z,11.50
2023-05-14T11:57:02.686Z,11.50
2023-05-14T12:00:00.088Z,11.54
2023-05-14T12:02:57.737Z,11.52
2023-05-14T12:05:55.583Z,11.50
2023-05-14T12:08:52.973Z,11.50
2023-05-14T12:11:51.113Z,11.50
2023-05-14T12:14:48.566Z,11.50
2023-05-14T12:17:46.875Z,11.40
2023-05-14T12:20:44.333Z,11.40
2023-05-14T12:23:42.177Z,11.40
2023-05-14T12:26:41.070Z,11.50
2023-05-14T12:29:39.188Z,11.40
2023-05-14T12:32:37.028Z,11.40
2023-05-14T12:35:34.595Z,11.48
2023-05-14T12:38:32.204Z,11.50
2023-05-14T12:41:29.610Z,11.50
2023-05-14T12:44:27.250Z,11.50
2023-05-14T12:47:24.789Z,11.60
2023-05-14T12:50:22.771Z,11.60
2023-05-14T12:53:20.666Z,11.60
2023-05-14T12:56:18.108Z,11.68
2023-05-14T12:59:15.930Z,11.64
2023-05-14T13:02:14.437Z,11.62
2023-05-14T13:05:13.775Z,11.60
2023-05-14T13:08:11.234Z,11.60
2023-05-14T13:11:08.914Z,11.60
2023-05-14T13:14:06.328Z,11.60
2023-05-14T13:17:04.018Z,11.60
2023-05-14T13:20:01.953Z,11.60
2023-05-14T13:22:59.382Z,11.70
2023-05-14T13:25:57.036Z,11.70
2023-05-14T13:28:54.514Z,11.78
2023-05-14T13:31:53.318Z,11.80
2023-05-14T13:34:50.715Z,11.80
2023-05-14T13:37:48.323Z,11.80
2023-05-14T13:40:45.777Z,11.90
2023-05-14T13:43:43.429Z,11.98
2023-05-14T13:46:41.141Z,12.00
2023-05-14T13:49:38.569Z,12.00
2023-05-14T13:52:36.315Z,12.00
2023-05-14T13:55:33.857Z,12.00
2023-05-14T13:58:31.458Z,12.00
2023-05-14T14:01:31.090Z,12.00
2023-05-14T14:04:29.091Z,12.00
2023-05-14T14:07:26.921Z,11.92
2023-05-14T14:10:24.351Z,11.90
2023-05-14T14:13:23.056Z,11.90
2023-05-14T14:16:20.926Z,11.90
2023-05-14T14:19:18.967Z,11.90
2023-05-14T14:22:17.470Z,11.90
2023-05-14T14:25:15.417Z,11.80
2023-05-14T14:28:13.119Z,11.80
2023-05-14T14:31:10.635Z,11.80
2023-05-14T14:34:08.350Z,11.80
2023-05-14T14:37:06.338Z,11.80
2023-05-14T14:40:06.230Z,11.80
2023-05-14T14:43:04.064Z,11.80
2023-05-14T14:46:01.726Z,11.70
2023-05-14T14:48:59.138Z,11.70
2023-05-14T14:51:56.880Z,11.70
2023-05-14T14:54:54.316Z,11.70
2023-05-14T14:57:52.130Z,11.70
2023-05-14T15:00:49.520Z,11.70
2023-05-14T15:03:48.580Z,11.70
2023-05-14T15:06:46.028Z,11.70
2023-05-14T15:09:43.792Z,11.70
2023-05-14T15:12:41.456Z,11.68
2023-05-14T15:15:38.862Z,11.62
2023-05-14T15:18:36.575Z,11.64
2023-05-14T15:21:34.046Z,11.66
2023-05-14T15:24:31.778Z,11.70
2023-05-14T15:27:29.229Z,11.64
2023-05-14T15:30:26.938Z,11.66
2023-05-14T15:33:25.231Z,11.70
2023-05-14T15:36:22.641Z,11.70
2023-05-14T15:39:20.287Z,11.72
2023-05-14T15:42:17.678Z,11.70
2023-05-14T15:45:15.290Z,11.70
2023-05-14T15:48:13.096Z,11.70
2023-05-14T15:51:10.648Z,11.70
2023-05-14T15:54:08.468Z,11.70
2023-05-14T15:57:05.846Z,11.62
2023-05-14T16:00:09.363Z,11.60
2023-05-14T16:03:07.133Z,11.64
2023-05-14T16:06:04.856Z,11.60
2023-05-14T16:09:03.241Z,11.60
2023-05-14T16:12:00.917Z,11.60
2023-05-14T16:14:59.386Z,11.56
2023-05-14T16:17:56.814Z,11.60
2023-05-14T16:20:54.610Z,11.60
2023-05-14T16:23:52.048Z,11.60
2023-05-14T16:26:49.672Z,11.60
2023-05-14T16:29:47.081Z,11.60
2023-05-14T16:32:48.674Z,11.58
2023-05-14T16:35:47.026Z,11.56
2023-05-14T16:39:05.126Z,11.52
2023-05-14T16:42:02.435Z,11.56
2023-05-14T16:44:59.911Z,11.60
2023-05-14T16:47:57.871Z,11.52
2023-05-14T16:50:56.283Z,11.60
2023-05-14T16:53:55.508Z,11.60
2023-05-14T16:56:53.406Z,11.60
2023-05-14T16:59:51.091Z,11.50
2023-05-14T17:02:50.220Z,11.50
2023-05-14T17:05:47.644Z,11.50
2023-05-14T17:08:45.518Z,11.50
2023-05-14T17:11:42.971Z,11.50
2023-05-14T17:14:40.654Z,11.50
2023-05-14T17:17:38.658Z,11.50
2023-05-14T17:20:36.137Z,11.50
2023-05-14T17:23:33.778Z,11.50
2023-05-14T17:26:31.241Z,11.50
2023-05-14T17:29:28.872Z,11.50
2023-05-14T17:32:26.648Z,11.50
2023-05-14T17:35:24.717Z,11.50
2023-05-14T17:38:22.845Z,11.50
2023-05-14T17:41:20.281Z,11.50
2023-05-14T17:44:18.202Z,11.50
2023-05-14T17:47:15.749Z,11.50
2023-05-14T17:50:13.427Z,11.50
2023-05-14T17:53:11.204Z,11.50
2023-05-14T17:56:08.882Z,11.50
2023-05-14T17:59:07.453Z,11.50
2023-05-14T18:02:05.748Z,11.50
2023-05-14T18:05:04.229Z,11.50
2023-05-14T18:08:01.746Z,11.50
2023-05-14T18:11:01.518Z,11.58
2023-05-14T18:13:59.067Z,11.60
2023-05-14T18:16:56.797Z,11.50
2023-05-14T18:19:54.455Z,11.50
2023-05-14T18:22:53.087Z,11.50
2023-05-14T18:25:50.586Z,11.50
2023-05-14T18:28:48.518Z,11.50
2023-05-14T18:31:46.286Z,11.50
2023-05-14T18:34:44.111Z,11.50
2023-05-14T18:37:42.140Z,11.50
2023-05-14T18:40:39.592Z,11.50
2023-05-14T18:43:37.351Z,11.50
2023-05-14T18:46:35.300Z,11.50
2023-05-14T18:49:33.738Z,11.50
2023-05-14T18:52:33.913Z,11.50
2023-05-14T18:55:31.397Z,11.50
2023-05-14T18:58:29.029Z,11.40
2023-05-14T19:01:26.715Z,11.40
2023-05-14T19:04:25.507Z,11.40
2023-05-14T19:07:23.411Z,11.40
2023-05-14T19:10:21.165Z,11.40
2023-05-14T19:13:19.629Z,11.40
2023-05-14T19:16:17.618Z,11.40
2023-05-14T19:19:15.832Z,11.40
2023-05-14T19:22:13.417Z,11.42
2023-05-14T19:25:12.045Z,11.40
2023-05-14T19:28:10.713Z,11.48
2023-05-14T19:31:08.221Z,11.50
2023-05-14T19:34:06.701Z,11.44
2023-05-14T19:37:04.742Z,11.42
2023-05-14T19:40:02.364Z,11.50
2023-05-14T19:42:59.865Z,11.50
2023-05-14T19:48:55.489Z,11.50
2023-05-14T19:51:52.920Z,11.58
2023-05-14T19:54:53.882Z,11.60
2023-05-14T19:57:51.426Z,11.58
2023-05-14T20:00:51.689Z,11.60
2023-05-14T20:03:49.268Z,11.58
2023-05-14T20:06:47.547Z,11.60
2023-05-14T20:09:45.327Z,11.60
2023-05-14T20:12:42.996Z,11.60
2023-05-14T20:15:40.622Z,11.60
2023-05-14T20:18:38.134Z,11.66
2023-05-14T20:21:35.904Z,11.70
2023-05-14T20:24:35.791Z,11.70
2023-05-14T20:27:34.103Z,11.70
2023-05-14T20:30:31.852Z,11.70
2023-05-14T20:33:29.420Z,11.70
2023-05-14T20:36:27.159Z,11.70
2023-05-14T20:39:24.644Z,11.70
2023-05-14T20:42:22.368Z,11.70
2023-05-14T20:45:20.070Z,11.70
2023-05-14T20:48:17.709Z,11.70
2023-05-14T20:51:15.455Z,11.68
2023-05-14T20:54:13.024Z,11.70
2023-05-14T20:57:10.661Z,11.68
2023-05-14T21:00:10.042Z,11.68
2023-05-14T21:03:08.085Z,11.68
2023-05-14T21:06:06.224Z,11.70
2023-05-14T21:09:03.832Z,11.70
2023-05-14T21:12:01.761Z,11.70
2023-05-14T21:14:59.502Z,11.70
2023-05-14T21:17:57.503Z,11.70
2023-05-14T21:20:55.103Z,11.70
2023-05-14T21:23:52.904Z,11.70
2023-05-14T21:26:52.236Z,11.70
2023-05-14T21:29:51.456Z,11.70
2023-05-14T21:32:49.398Z,11.70
2023-05-14T21:35:46.989Z,11.70
2023-05-14T21:38:44.719Z,11.70
2023-05-14T21:41:42.170Z,11.70
2023-05-14T21:44:39.878Z,11.70
2023-05-14T21:47:37.423Z,11.70
2023-05-14T21:50:35.343Z,11.70
2023-05-14T21:53:32.791Z,11.70
2023-05-14T21:56:30.460Z,11.70
2023-05-14T21:59:28.125Z,11.70
2023-05-14T22:02:26.246Z,11.70
2023-05-14T22:05:24.141Z,11.70
2023-05-14T22:08:21.691Z,11.70
2023-05-14T22:11:19.323Z,11.70
2023-05-14T22:14:16.795Z,11.70
2023-05-14T22:17:14.405Z,11.70
2023-05-14T22:20:12.184Z,11.70
2023-05-14T22:23:09.648Z,11.70
2023-05-14T22:26:07.236Z,11.74
2023-05-14T22:29:04.690Z,11.72
2023-05-14T22:32:02.373Z,11.70
2023-05-14T22:35:00.122Z,11.72
2023-05-14T22:37:57.942Z,11.70
2023-05-14T22:40:55.355Z,11.70
2023-05-14T22:43:53.043Z,11.70
2023-05-14T22:46:50.939Z,11.70
2023-05-14T22:49:48.461Z,11.70
2023-05-14T22:52:46.116Z,11.70
2023-05-14T22:55:43.596Z,11.70
2023-05-14T22:58:42.019Z,11.70
2023-05-14T23:01:39.668Z,11.70
2023-05-14T23:04:37.159Z,11.70
2023-05-14T23:07:34.896Z,11.70
2023-05-14T23:10:32.379Z,11.70
2023-05-14T23:13:31.359Z,11.70
2023-05-14T23:16:28.742Z,11.70
2023-05-14T23:19:26.895Z,11.70
2023-05-14T23:22:24.413Z,11.62
2023-05-14T23:25:22.187Z,11.60
2023-05-14T23:28:20.191Z,11.60
2023-05-14T23:31:17.706Z,11.60
2023-05-14T23:34:15.486Z,11.62
2023-05-14T23:37:13.617Z,11.64
2023-05-14T23:40:11.354Z,11.60
2023-05-14T23:43:08.816Z,11.60
2023-05-14T23:46:06.607Z,11.60
2023-05-14T23:49:04.152Z,11.60
2023-05-14T23:52:01.920Z,11.60
2023-05-14T23:54:59.355Z,11.60
2023-05-14T23:57:57.083Z,11.60
